Time;durP1;ratioP1;P1;durP2;ratioP2;P2;SDS_P1;SDS_P2;PMS_P1;PMS_P2;Temp;Humidity;BMP_temperature;BMP_pressure;BME280_temperature;BME280_humidity;BME280_pressure;Samples;Min_cycle;Max_cycle;Signal;HPM_P1;HPM_P2
2022/08/21 00:01:45;;;;;;;6.20;1.40;;;19.40;65.80;;;;;;5069176;28;20115;-75
2022/08/21 00:04:18;;;;;;;6.30;1.85;;;19.40;65.90;;;;;;5058149;28;20037;-75
2022/08/21 00:06:43;;;;;;;6.10;1.70;;;19.40;65.90;;;;;;5073206;28;20036;-75
2022/08/21 00:09:10;;;;;;;8.52;1.92;;;19.30;66.30;;;;;;5064247;28;20032;-75
2022/08/21 00:11:37;;;;;;;6.80;1.85;;;19.30;66.10;;;;;;5040080;28;20049;-75
2022/08/21 00:14:05;;;;;;;5.88;1.58;;;19.30;66.20;;;;;;5057778;28;20412;-75
2022/08/21 00:16:31;;;;;;;9.65;1.95;;;19.40;66.00;;;;;;5039848;28;20037;-75
2022/08/21 00:18:57;;;;;;;7.00;2.40;;;19.30;66.10;;;;;;5039987;28;20029;-75
2022/08/21 00:21:24;;;;;;;4.95;1.70;;;19.30;66.20;;;;;;5057969;28;20040;-75
2022/08/21 00:23:50;;;;;;;6.50;1.88;;;19.30;66.20;;;;;;5057849;28;20534;-75
2022/08/21 00:26:16;;;;;;;7.95;2.30;;;19.30;66.50;;;;;;5057862;28;20369;-75
2022/08/21 00:28:42;;;;;;;13.60;1.80;;;19.20;66.60;;;;;;5073700;28;20029;-75
2022/08/21 00:31:08;;;;;;;13.15;2.20;;;19.20;66.60;;;;;;5077418;28;20039;-75
2022/08/21 00:33:34;;;;;;;6.28;1.70;;;19.20;66.70;;;;;;5069703;28;20025;-75
2022/08/21 00:35:59;;;;;;;2.15;1.27;;;19.20;66.80;;;;;;5057724;28;20060;-75
2022/08/21 00:38:25;;;;;;;8.00;1.80;;;19.10;66.70;;;;;;5057701;28;20052;-74
2022/08/21 00:40:54;;;;;;;5.07;1.40;;;19.10;67.00;;;;;;5057628;28;20040;-75
2022/08/21 00:43:24;;;;;;;3.67;1.42;;;19.10;66.60;;;;;;5074703;28;20033;-75
2022/08/21 00:45:50;;;;;;;8.55;1.65;;;19.10;66.70;;;;;;5077302;28;20036;-75
2022/08/21 00:48:16;;;;;;;7.25;1.60;;;19.10;66.70;;;;;;5077575;28;20032;-75
2022/08/21 00:50:48;;;;;;;7.53;1.58;;;19.00;66.60;;;;;;5066213;28;20485;-75
2022/08/21 00:53:15;;;;;;;11.23;1.65;;;19.00;66.90;;;;;;5039370;28;20130;-75
2022/08/21 00:55:41;;;;;;;5.43;1.98;;;18.90;66.90;;;;;;5041323;28;20525;-75
2022/08/21 00:58:09;;;;;;;7.60;1.65;;;18.90;67.20;;;;;;5077359;28;20035;-75
2022/08/21 01:00:39;;;;;;;4.50;1.40;;;18.90;67.40;;;;;;5064941;28;20079;-75
2022/08/21 01:03:11;;;;;;;7.38;2.03;;;18.80;67.60;;;;;;5057173;28;20483;-75
2022/08/21 01:05:37;;;;;;;9.27;2.13;;;18.80;67.80;;;;;;5053976;28;20047;-75
2022/08/21 01:08:04;;;;;;;5.40;1.52;;;18.70;67.90;;;;;;5053266;28;20128;-75
2022/08/21 01:10:31;;;;;;;7.70;2.20;;;18.70;68.40;;;;;;5038770;28;20075;-75
2022/08/21 01:12:58;;;;;;;4.88;1.90;;;18.70;68.20;;;;;;5056874;28;20049;-75
2022/08/21 01:15:31;;;;;;;6.90;2.03;;;18.70;68.20;;;;;;5056839;28;20032;-75
2022/08/21 01:17:57;;;;;;;5.72;1.50;;;18.80;68.20;;;;;;5056890;28;20100;-75
2022/08/21 01:20:22;;;;;;;4.20;1.80;;;18.80;68.00;;;;;;5040013;28;20106;-75
2022/08/21 01:22:48;;;;;;;7.00;2.33;;;18.80;68.00;;;;;;5058797;28;20115;-75
2022/08/21 01:25:16;;;;;;;7.55;2.03;;;18.80;67.90;;;;;;5066344;28;20033;-75
2022/08/21 01:27:42;;;;;;;9.30;1.85;;;18.80;67.80;;;;;;5056795;28;20161;-75
2022/08/21 01:30:13;;;;;;;5.28;1.60;;;18.80;67.90;;;;;;5055838;28;20032;-75
2022/08/21 01:32:39;;;;;;;4.10;2.08;;;18.80;68.00;;;;;;5056587;28;20104;-75
2022/08/21 01:35:05;;;;;;;6.60;2.47;;;18.80;68.20;;;;;;5038675;28;20512;-75
2022/08/21 01:37:32;;;;;;;4.88;1.50;;;18.70;68.10;;;;;;5074385;28;20120;-75
2022/08/21 01:39:58;;;;;;;4.63;1.40;;;18.80;68.10;;;;;;5075984;28;20115;-75
2022/08/21 01:42:23;;;;;;;4.50;1.60;;;18.70;68.10;;;;;;5076311;28;20052;-75
2022/08/21 01:44:49;;;;;;;11.45;2.15;;;18.70;68.00;;;;;;5063459;28;20519;-75
2022/08/21 01:47:16;;;;;;;5.15;1.67;;;18.70;68.20;;;;;;5055946;28;20037;-75
2022/08/21 01:49:42;;;;;;;6.55;1.88;;;18.70;68.30;;;;;;5055681;28;20025;-75
2022/08/21 01:52:09;;;;;;;5.45;1.77;;;18.60;68.60;;;;;;5056079;28;20050;-75
2022/08/21 01:54:35;;;;;;;10.57;2.05;;;18.60;68.50;;;;;;5056197;28;20044;-75
2022/08/21 01:57:02;;;;;;;6.18;1.48;;;18.50;68.30;;;;;;5043206;28;20081;-75
2022/08/21 01:59:28;;;;;;;6.65;1.67;;;18.60;68.80;;;;;;5038158;28;20029;-75
2022/08/21 02:01:54;;;;;;;10.90;2.05;;;18.50;68.90;;;;;;5055757;28;20088;-75
2022/08/21 02:04:20;;;;;;;5.53;1.85;;;18.50;68.80;;;;;;5038045;28;20017;-75
2022/08/21 02:06:46;;;;;;;6.78;1.80;;;18.50;68.90;;;;;;5071088;28;20051;-74
2022/08/21 02:09:13;;;;;;;8.25;2.10;;;18.50;68.90;;;;;;5057819;28;20042;-75
2022/08/21 02:11:40;;;;;;;8.98;2.30;;;18.40;69.10;;;;;;5055803;28;20025;-75
2022/08/21 02:14:15;;;;;;;7.50;1.45;;;18.30;69.60;;;;;;5055522;28;20136;-75
2022/08/21 02:16:43;;;;;;;5.45;1.73;;;18.30;69.70;;;;;;5055719;28;20033;-75
2022/08/21 02:19:11;;;;;;;7.38;1.88;;;18.30;69.90;;;;;;5055813;28;20079;-75
2022/08/21 02:21:37;;;;;;;7.70;1.67;;;18.30;70.10;;;;;;5055684;28;20060;-75
2022/08/21 02:24:03;;;;;;;6.75;2.00;;;18.30;69.60;;;;;;5055779;28;20017;-75
2022/08/21 02:26:31;;;;;;;6.75;1.67;;;18.20;70.20;;;;;;5037058;28;20053;-75
2022/08/21 02:28:57;;;;;;;6.85;1.73;;;18.20;70.20;;;;;;5050622;28;20040;-75
2022/08/21 02:31:23;;;;;;;6.43;2.05;;;18.20;70.40;;;;;;5075521;28;20456;-75
2022/08/21 02:33:48;;;;;;;8.32;1.77;;;18.20;70.40;;;;;;5056221;28;20029;-75
2022/08/21 02:36:14;;;;;;;7.90;2.15;;;18.20;70.40;;;;;;5037537;28;20121;-74
2022/08/21 02:38:41;;;;;;;4.38;2.20;;;18.10;70.30;;;;;;5037487;28;20524;-75
2022/08/21 02:41:12;;;;;;;5.22;1.63;;;18.20;70.10;;;;;;5055521;28;20029;-75
2022/08/21 02:43:40;;;;;;;8.45;1.80;;;18.20;70.10;;;;;;5055434;28;20036;-75
2022/08/21 02:46:07;;;;;;;5.13;1.70;;;18.10;70.40;;;;;;5036819;28;20116;-75
2022/08/21 02:48:34;;;;;;;8.77;1.85;;;18.10;70.80;;;;;;5066445;28;20090;-75
2022/08/21 02:51:04;;;;;;;6.90;1.45;;;18.10;70.90;;;;;;5074464;28;20033;-75
2022/08/21 02:53:30;;;;;;;7.25;1.75;;;18.10;70.60;;;;;;5071506;28;20025;-75
2022/08/21 02:55:58;;;;;;;4.93;1.45;;;18.10;70.90;;;;;;5055288;28;20489;-75
2022/08/21 02:58:27;;;;;;;5.20;1.63;;;18.00;70.90;;;;;;5056415;28;20047;-75
2022/08/21 03:00:58;;;;;;;3.43;1.50;;;18.10;71.00;;;;;;5074764;28;20495;-75
2022/08/21 03:03:25;;;;;;;6.63;1.70;;;18.10;71.30;;;;;;5075278;28;20056;-75
2022/08/21 03:05:51;;;;;;;4.85;1.65;;;18.00;71.40;;;;;;5070015;28;20059;-75
2022/08/21 03:08:18;;;;;;;8.02;2.17;;;18.00;71.50;;;;;;5075317;28;20032;-75
2022/08/21 03:10:47;;;;;;;8.30;2.30;;;18.00;71.30;;;;;;5075148;28;20021;-75
2022/08/21 03:13:14;;;;;;;4.10;1.50;;;18.00;71.40;;;;;;5075045;28;20057;-75
2022/08/21 03:15:41;;;;;;;7.63;2.00;;;17.90;71.70;;;;;;5052707;28;20033;-75
2022/08/21 03:18:10;;;;;;;5.13;2.13;;;17.80;71.80;;;;;;5054813;28;20036;-75
2022/08/21 03:20:37;;;;;;;6.73;1.90;;;17.80;71.90;;;;;;5066853;28;20037;-75
2022/08/21 03:23:05;;;;;;;7.47;1.70;;;17.80;72.20;;;;;;5075074;28;20622;-75
2022/08/21 03:25:32;;;;;;;9.85;1.77;;;17.80;72.30;;;;;;5072899;28;20035;-75
2022/08/21 03:27:59;;;;;;;6.32;1.70;;;17.80;72.30;;;;;;5055058;28;20025;-75
2022/08/21 03:30:24;;;;;;;11.30;2.10;;;17.80;72.30;;;;;;5054981;28;20036;-75
2022/08/21 03:32:50;;;;;;;4.47;1.70;;;17.80;72.80;;;;;;5054912;28;20017;-75
2022/08/21 03:35:17;;;;;;;5.55;2.30;;;17.80;72.60;;;;;;5054739;28;20600;-75
2022/08/21 03:37:42;;;;;;;6.55;2.00;;;17.80;72.70;;;;;;5054498;28;20652;-75
2022/08/21 03:40:10;;;;;;;5.05;1.80;;;17.80;72.40;;;;;;5054797;28;20032;-75
2022/08/21 03:42:35;;;;;;;7.40;1.92;;;17.80;72.40;;;;;;5044677;28;20044;-75
2022/08/21 03:45:02;;;;;;;8.18;2.20;;;17.90;71.70;;;;;;5074023;28;20435;-75
2022/08/21 03:47:28;;;;;;;4.65;1.70;;;17.90;71.70;;;;;;5054522;28;20025;-75
2022/08/21 03:49:54;;;;;;;6.13;1.70;;;17.90;72.00;;;;;;5054796;28;20569;-75
2022/08/21 03:52:23;;;;;;;9.68;2.05;;;17.90;72.10;;;;;;5054687;28;20049;-75
2022/08/21 03:54:50;;;;;;;6.15;2.00;;;17.80;72.00;;;;;;5054624;28;20355;-75
2022/08/21 03:57:16;;;;;;;5.22;1.70;;;17.80;72.00;;;;;;5036500;28;20116;-75
2022/08/21 03:59:43;;;;;;;7.53;2.45;;;17.80;72.00;;;;;;5054775;28;20025;-75
2022/08/21 04:02:10;;;;;;;6.13;1.70;;;17.80;72.20;;;;;;5055471;28;20511;-75
2022/08/21 04:04:36;;;;;;;6.32;1.88;;;17.80;72.20;;;;;;5058130;28;20029;-75
2022/08/21 04:07:02;;;;;;;7.82;1.80;;;17.80;72.00;;;;;;5096638;28;20031;-75
2022/08/21 04:09:31;;;;;;;5.88;1.92;;;17.80;72.00;;;;;;5081605;28;20040;-75
2022/08/21 04:11:57;;;;;;;6.68;2.17;;;17.80;72.00;;;;;;5077995;28;20561;-75
2022/08/21 04:14:23;;;;;;;10.70;2.13;;;17.80;72.10;;;;;;5069238;28;20033;-75
2022/08/21 04:16:49;;;;;;;8.43;2.58;;;17.80;72.30;;;;;;5057939;28;20029;-75
2022/08/21 04:19:15;;;;;;;10.52;2.38;;;17.70;72.10;;;;;;5040028;28;20516;-75
2022/08/21 04:21:41;;;;;;;9.18;1.88;;;17.70;71.90;;;;;;5058036;28;20485;-75
2022/08/21 04:24:09;;;;;;;9.52;2.08;;;17.70;71.90;;;;;;5039757;28;20041;-75
2022/08/21 04:26:36;;;;;;;4.80;1.73;;;17.70;72.50;;;;;;5058052;28;20029;-75
2022/08/21 04:29:02;;;;;;;6.65;1.65;;;17.70;72.70;;;;;;5057685;28;20025;-75
2022/08/21 04:31:28;;;;;;;3.17;1.65;;;17.60;72.40;;;;;;5057746;28;20024;-75
2022/08/21 04:33:56;;;;;;;8.90;2.25;;;17.60;72.80;;;;;;5039127;28;20021;-75
2022/08/21 04:36:22;;;;;;;4.60;2.08;;;17.60;72.50;;;;;;5057640;28;20036;-75
2022/08/21 04:38:48;;;;;;;5.60;2.00;;;17.60;73.00;;;;;;5057939;28;20033;-75
2022/08/21 04:41:14;;;;;;;7.30;1.90;;;17.50;73.40;;;;;;5057584;28;20017;-75
2022/08/21 04:43:40;;;;;;;3.25;2.03;;;17.50;73.40;;;;;;5074300;28;20492;-74
2022/08/21 04:46:06;;;;;;;8.43;2.55;;;17.40;73.50;;;;;;5076070;28;20153;-75
2022/08/21 04:48:35;;;;;;;6.45;1.92;;;17.40;73.60;;;;;;5077544;28;20059;-75
2022/08/21 04:51:13;;;;;;;6.40;2.63;;;17.40;73.50;;;;;;5059066;28;20035;-75
2022/08/21 04:54:11;;;;;;;6.15;2.22;;;17.40;72.90;;;;;;5067549;28;20029;-75
2022/08/21 04:56:42;;;;;;;6.82;2.10;;;17.30;73.70;;;;;;5057414;28;20444;-75
2022/08/21 04:59:16;;;;;;;9.40;2.50;;;17.30;73.80;;;;;;5059372;28;20071;-75
2022/08/21 05:01:43;;;;;;;8.98;2.22;;;17.30;74.10;;;;;;5077032;28;20032;-75
2022/08/21 05:04:12;;;;;;;6.93;1.77;;;17.20;74.50;;;;;;5063124;28;20036;-76
2022/08/21 05:06:41;;;;;;;9.65;1.90;;;17.30;74.50;;;;;;5066159;28;20027;-75
2022/08/21 05:09:09;;;;;;;8.27;2.00;;;17.30;74.30;;;;;;5076599;28;20105;-75
2022/08/21 05:11:35;;;;;;;7.95;2.15;;;17.30;74.00;;;;;;5068792;28;20017;-75
2022/08/21 05:14:01;;;;;;;6.30;2.40;;;17.40;73.80;;;;;;5075887;28;20076;-75
2022/08/21 05:16:27;;;;;;;5.20;1.98;;;17.40;73.70;;;;;;5076836;28;20028;-75
2022/08/21 05:18:53;;;;;;;4.00;2.00;;;17.40;73.50;;;;;;5063260;28;20033;-76
2022/08/21 05:21:19;;;;;;;5.50;2.03;;;17.40;73.30;;;;;;5076678;28;20112;-75
2022/08/21 05:23:44;;;;;;;6.57;2.17;;;17.30;73.10;;;;;;5076661;28;20032;-76
2022/08/21 05:26:10;;;;;;;4.68;2.22;;;17.30;73.50;;;;;;5075127;28;20116;-75
2022/08/21 05:28:35;;;;;;;7.25;1.90;;;17.30;73.10;;;;;;5076071;28;20059;-76
2022/08/21 05:31:01;;;;;;;9.18;2.50;;;17.30;73.60;;;;;;5049403;28;20442;-76
2022/08/21 05:33:27;;;;;;;8.45;2.65;;;17.40;73.80;;;;;;5038523;28;20499;-75
2022/08/21 05:35:55;;;;;;;5.97;2.33;;;17.40;73.90;;;;;;5056680;28;20068;-76
2022/08/21 05:38:21;;;;;;;5.70;2.30;;;17.40;73.30;;;;;;5038232;28;20029;-76
2022/08/21 05:40:47;;;;;;;6.57;2.05;;;17.40;73.40;;;;;;5038222;28;20024;-75
2022/08/21 05:43:14;;;;;;;5.93;1.80;;;17.50;73.20;;;;;;5058773;28;20098;-76
2022/08/21 05:45:40;;;;;;;8.45;2.30;;;17.50;73.00;;;;;;5055732;28;20053;-75
2022/08/21 05:48:10;;;;;;;8.07;1.95;;;17.50;73.20;;;;;;5056188;28;20076;-76
2022/08/21 05:50:37;;;;;;;6.15;2.28;;;17.50;73.50;;;;;;5056308;28;20048;-76
2022/08/21 05:53:04;;;;;;;4.82;2.08;;;17.40;73.70;;;;;;5056078;28;20056;-77
2022/08/21 05:55:29;;;;;;;5.57;2.20;;;17.40;73.90;;;;;;5056210;28;20051;-76
2022/08/21 05:57:55;;;;;;;13.77;2.67;;;17.40;73.90;;;;;;5071372;28;20029;-76
2022/08/21 06:00:22;;;;;;;4.55;1.73;;;17.40;74.00;;;;;;5057779;28;20476;-83
2022/08/21 06:02:49;;;;;;;10.85;1.90;;;17.50;73.70;;;;;;5061153;28;20079;-83
2022/08/21 06:05:15;;;;;;;6.88;1.98;;;17.50;73.40;;;;;;5082283;28;20024;-85
2022/08/21 06:07:41;;;;;;;5.30;1.65;;;17.60;73.20;;;;;;5054201;28;20476;-83
2022/08/21 06:10:07;;;;;;;5.22;2.15;;;17.70;73.80;;;;;;5055166;28;20036;-81
2022/08/21 06:12:34;;;;;;;9.45;2.47;;;17.70;73.20;;;;;;5074794;28;20044;-82
2022/08/21 06:15:00;;;;;;;11.13;2.45;;;17.70;74.10;;;;;;5075922;28;20031;-82
2022/08/21 06:17:25;;;;;;;6.38;2.10;;;17.70;73.60;;;;;;5057850;28;20040;-82
2022/08/21 06:19:53;;;;;;;5.28;2.22;;;17.80;74.00;;;;;;5075833;28;20028;-82
2022/08/21 06:22:19;;;;;;;8.95;2.47;;;17.80;73.50;;;;;;5044985;28;20059;-80
2022/08/21 06:24:45;;;;;;;9.68;2.60;;;17.70;74.10;;;;;;5042298;28;20039;-80
2022/08/21 06:27:11;;;;;;;4.75;1.75;;;17.80;73.60;;;;;;5065849;28;20031;-84
2022/08/21 06:29:37;;;;;;;5.78;2.03;;;17.80;73.80;;;;;;5045183;28;20033;-78
2022/08/21 06:32:04;;;;;;;10.05;2.25;;;17.90;74.10;;;;;;5063866;28;20031;-84
2022/08/21 06:34:29;;;;;;;9.82;2.67;;;17.90;73.70;;;;;;5065165;28;20013;-81
2022/08/21 06:36:55;;;;;;;9.75;2.42;;;18.00;73.10;;;;;;5062972;28;20047;-83
2022/08/21 06:39:21;;;;;;;7.03;2.15;;;18.20;72.40;;;;;;5045035;28;20025;-83
2022/08/21 06:41:47;;;;;;;7.40;2.30;;;18.30;73.00;;;;;;5039190;28;20037;-89
2022/08/21 06:44:16;;;;;;;6.65;2.10;;;18.30;73.00;;;;;;5057843;28;20086;-89
2022/08/21 06:46:42;;;;;;;5.97;2.17;;;18.40;72.80;;;;;;5057716;28;20025;-88
2022/08/21 06:49:07;;;;;;;12.60;2.55;;;18.40;72.30;;;;;;5056596;28;20021;-83
2022/08/21 06:51:33;;;;;;;6.63;2.10;;;18.50;71.80;;;;;;5037864;28;20033;-82
2022/08/21 06:53:58;;;;;;;5.53;1.73;;;18.60;71.60;;;;;;5062546;28;20021;-86
2022/08/21 06:56:24;;;;;;;7.25;2.58;;;18.60;71.70;;;;;;5075523;28;20049;-81
2022/08/21 06:58:50;;;;;;;6.18;2.05;;;18.70;71.40;;;;;;5057485;28;20123;-81
2022/08/21 07:01:16;;;;;;;12.27;2.40;;;18.80;71.20;;;;;;5058116;28;20032;-80
2022/08/21 07:03:42;;;;;;;6.97;2.17;;;18.80;71.30;;;;;;5046307;28;20024;-82
2022/08/21 07:06:10;;;;;;;8.55;2.10;;;18.90;71.30;;;;;;5083369;28;20028;-80
2022/08/21 07:08:36;;;;;;;10.75;2.28;;;19.00;71.20;;;;;;5077317;28;20024;-83
2022/08/21 07:11:06;;;;;;;5.13;2.00;;;19.10;70.70;;;;;;5068379;28;20376;-82
2022/08/21 07:13:32;;;;;;;9.85;2.03;;;19.30;70.10;;;;;;5065728;28;20037;-81
2022/08/21 07:15:58;;;;;;;6.28;1.70;;;19.50;70.30;;;;;;5054977;28;20029;-80
2022/08/21 07:18:24;;;;;;;10.05;2.40;;;19.50;70.00;;;;;;5058118;28;20036;-80
2022/08/21 07:20:50;;;;;;;7.68;2.20;;;19.50;69.80;;;;;;5061756;28;20038;-80
2022/08/21 07:23:30;;;;;;;10.40;2.22;;;19.50;69.70;;;;;;5064129;28;20047;-80
2022/08/21 07:25:56;;;;;;;;;;;19.50;69.80;;;;;;5061738;28;20028;-80
2022/08/21 07:28:21;;;;;;;8.52;3.08;;;19.50;70.00;;;;;;5062280;28;20411;-80
2022/08/21 07:30:52;;;;;;;7.00;2.22;;;19.50;69.30;;;;;;5057859;28;20024;-80
2022/08/21 07:33:17;;;;;;;7.10;2.00;;;19.70;69.00;;;;;;5059458;28;21491;-79
2022/08/21 07:35:43;;;;;;;11.18;2.33;;;19.80;69.00;;;;;;5066073;28;20029;-81
2022/08/21 07:38:09;;;;;;;8.35;2.08;;;19.80;69.70;;;;;;5068338;28;20036;-81
2022/08/21 07:40:34;;;;;;;8.27;2.50;;;19.90;69.50;;;;;;5045015;28;20061;-81
2022/08/21 07:43:00;;;;;;;6.43;2.13;;;19.90;69.50;;;;;;5070772;28;20047;-81
2022/08/21 07:45:26;;;;;;;3.75;1.75;;;19.90;68.90;;;;;;5068263;28;20021;-80
2022/08/21 07:47:52;;;;;;;11.40;2.10;;;20.00;68.80;;;;;;5057434;28;20025;-80
2022/08/21 07:50:19;;;;;;;7.60;2.17;;;20.00;68.70;;;;;;5069880;28;20028;-81
2022/08/21 07:52:45;;;;;;;11.57;2.10;;;20.00;68.60;;;;;;5077504;28;20032;-80
2022/08/21 07:55:14;;;;;;;5.93;1.77;;;20.10;68.70;;;;;;5076668;28;20028;-80
2022/08/21 07:57:40;;;;;;;6.30;2.20;;;20.10;68.90;;;;;;5074141;28;20024;-80
2022/08/21 08:00:10;;;;;;;7.53;1.73;;;20.10;68.80;;;;;;5085057;28;20583;-80
2022/08/21 08:02:36;;;;;;;5.60;1.60;;;20.00;69.70;;;;;;5075933;28;20028;-81
2022/08/21 08:05:05;;;;;;;10.05;2.20;;;19.90;69.50;;;;;;5090086;28;20032;-80
2022/08/21 08:07:31;;;;;;;6.63;1.73;;;19.90;69.90;;;;;;5079466;28;20104;-80
2022/08/21 08:09:58;;;;;;;5.85;1.65;;;20.00;69.90;;;;;;5073645;28;20047;-80
2022/08/21 08:12:29;;;;;;;12.80;2.03;;;20.00;70.20;;;;;;5076071;28;20136;-80
2022/08/21 08:14:57;;;;;;;9.52;1.95;;;20.00;70.00;;;;;;5062199;28;20036;-80
2022/08/21 08:17:23;;;;;;;8.20;2.50;;;20.10;69.80;;;;;;5067502;28;20033;-80
2022/08/21 08:19:49;;;;;;;11.27;2.33;;;20.10;70.00;;;;;;5062238;28;20033;-80
2022/08/21 08:22:18;;;;;;;8.68;2.05;;;20.20;70.10;;;;;;5058332;28;20036;-80
2022/08/21 08:24:44;;;;;;;10.93;2.22;;;20.30;69.90;;;;;;5063156;28;20027;-81
2022/08/21 08:27:10;;;;;;;7.20;2.22;;;20.40;69.10;;;;;;5058715;28;20530;-81
2022/08/21 08:29:36;;;;;;;9.95;2.67;;;20.40;68.60;;;;;;5062751;28;20021;-81
2022/08/21 08:32:03;;;;;;;7.90;1.50;;;20.60;69.00;;;;;;5066326;28;20028;-81
2022/08/21 08:34:30;;;;;;;6.95;2.13;;;20.70;68.50;;;;;;5057563;28;20017;-83
2022/08/21 08:36:58;;;;;;;4.00;1.65;;;20.90;67.80;;;;;;5048431;28;20055;-83
2022/08/21 08:39:24;;;;;;;5.82;1.40;;;21.10;67.10;;;;;;5061839;28;20446;-83
2022/08/21 08:41:57;;;;;;;8.55;1.77;;;21.50;66.20;;;;;;5064776;28;20064;-83
2022/08/21 08:44:22;;;;;;;6.40;1.40;;;21.70;65.50;;;;;;5065411;28;20033;-83
2022/08/21 08:46:51;;;;;;;4.53;1.35;;;21.60;64.70;;;;;;5044744;28;20033;-82
2022/08/21 08:49:29;;;;;;;6.22;1.38;;;21.60;64.70;;;;;;5073563;28;20051;-82
2022/08/21 08:52:20;;;;;;;6.50;1.63;;;21.50;64.80;;;;;;5066757;28;20039;-81
2022/08/21 08:55:12;;;;;;;6.30;1.60;;;21.50;65.30;;;;;;5067713;28;20024;-83
2022/08/21 08:57:41;;;;;;;8.57;1.65;;;21.70;65.10;;;;;;5062182;28;20128;-80
2022/08/21 09:00:11;;;;;;;3.55;1.30;;;21.80;64.90;;;;;;5065207;28;20507;-81
2022/08/21 09:02:42;;;;;;;5.90;1.65;;;21.80;63.60;;;;;;5075213;28;20492;-82
2022/08/21 09:05:15;;;;;;;6.20;1.25;;;21.70;63.20;;;;;;5073950;28;20099;-83
2022/08/21 09:07:44;;;;;;;4.00;1.50;;;21.70;63.00;;;;;;5097639;28;20024;-80
2022/08/21 09:10:16;;;;;;;5.00;1.13;;;21.80;62.20;;;;;;5056186;28;20032;-90
2022/08/21 09:13:10;;;;;;;3.63;1.33;;;21.80;61.50;;;;;;5049301;28;20053;-83
2022/08/21 09:15:58;;;;;;;2.00;0.93;;;22.40;61.00;;;;;;5070916;28;20028;-81
2022/08/21 09:18:39;;;;;;;3.85;1.27;;;23.10;58.50;;;;;;5047534;28;20033;-80
2022/08/21 09:21:16;;;;;;;5.95;1.85;;;23.60;57.90;;;;;;5056634;28;20024;-80
2022/08/21 09:24:00;;;;;;;6.18;1.00;;;24.00;54.80;;;;;;5036881;28;20025;-80
2022/08/21 09:26:35;;;;;;;2.95;0.90;;;23.80;54.30;;;;;;5055563;28;20047;-80
2022/08/21 09:29:02;;;;;;;5.38;0.85;;;23.50;54.80;;;;;;5052199;28;20024;-80
2022/08/21 09:31:30;;;;;;;3.97;1.20;;;23.50;54.90;;;;;;5057606;28;20029;-81
2022/08/21 09:34:09;;;;;;;3.72;1.15;;;23.30;55.20;;;;;;5074562;28;20036;-80
2022/08/21 09:36:41;;;;;;;3.30;0.85;;;23.30;55.80;;;;;;5058278;28;20025;-80
2022/08/21 09:39:10;;;;;;;5.47;1.00;;;23.80;55.60;;;;;;5066350;28;20404;-80
2022/08/21 09:41:37;;;;;;;6.80;1.48;;;24.10;54.50;;;;;;5054007;28;20025;-81
2022/08/21 09:44:06;;;;;;;5.93;1.08;;;24.20;54.10;;;;;;5035052;28;20033;-81
2022/08/21 09:46:32;;;;;;;7.00;1.50;;;24.10;54.00;;;;;;5035566;28;20603;-80
2022/08/21 09:49:01;;;;;;;3.10;1.20;;;24.30;53.50;;;;;;5036048;28;20057;-80
2022/08/21 09:51:35;;;;;;;6.90;1.48;;;24.60;53.30;;;;;;5035845;28;20025;-80
2022/08/21 09:54:07;;;;;;;8.07;1.50;;;24.80;52.70;;;;;;5055539;28;20025;-81
2022/08/21 09:59:32;;;;;;;5.95;1.75;;;24.80;52.30;;;;;;5056208;28;20055;-80
2022/08/21 10:02:01;;;;;;;6.00;1.33;;;25.00;51.60;;;;;;5056373;28;20027;-81
2022/08/21 10:04:34;;;;;;;6.53;1.35;;;25.00;52.20;;;;;;5056421;28;20032;-80
2022/08/21 10:07:12;;;;;;;5.72;1.50;;;24.80;52.40;;;;;;5080349;28;20029;-80
2022/08/21 10:09:38;;;;;;;6.10;1.10;;;24.50;52.70;;;;;;5056628;28;20058;-81
2022/08/21 10:12:10;;;;;;;2.78;0.93;;;24.30;53.70;;;;;;5072476;28;20069;-80
2022/08/21 10:14:52;;;;;;;5.85;0.98;;;24.50;53.30;;;;;;5072372;28;20032;-80
2022/08/21 10:17:31;;;;;;;4.03;1.55;;;24.50;54.00;;;;;;5056312;28;20500;-81
2022/08/21 10:20:06;;;;;;;4.82;1.05;;;24.40;53.80;;;;;;5038539;28;20040;-81
2022/08/21 10:22:32;;;;;;;7.93;1.30;;;24.30;54.00;;;;;;5056018;28;20066;-81
2022/08/21 10:25:16;;;;;;;3.80;1.08;;;24.10;55.00;;;;;;5038312;28;20124;-81
2022/08/21 10:27:57;;;;;;;3.10;1.42;;;23.90;54.80;;;;;;5059574;28;20027;-81
2022/08/21 10:30:36;;;;;;;2.97;0.90;;;23.80;55.50;;;;;;5074711;28;20409;-81
2022/08/21 10:33:19;;;;;;;2.63;1.00;;;23.70;55.80;;;;;;5058133;28;20063;-81
2022/08/21 10:35:59;;;;;;;3.10;0.80;;;23.60;56.20;;;;;;5064237;28;20033;-81
2022/08/21 10:38:37;;;;;;;8.32;1.85;;;23.50;57.20;;;;;;5055873;28;20028;-80
2022/08/21 10:41:02;;;;;;;7.45;1.10;;;23.40;58.40;;;;;;5055580;28;20029;-80
2022/08/21 10:43:46;;;;;;;7.63;1.40;;;23.40;59.20;;;;;;5055795;28;20082;-81
2022/08/21 10:46:17;;;;;;;4.63;1.20;;;23.40;59.60;;;;;;5049849;28;20377;-79
2022/08/21 10:48:43;;;;;;;5.32;1.02;;;23.40;60.90;;;;;;5074775;28;20087;-80
2022/08/21 10:51:27;;;;;;;4.57;1.08;;;23.50;61.20;;;;;;5055431;28;20028;-81
2022/08/21 10:54:12;;;;;;;5.28;1.30;;;23.60;61.20;;;;;;5057001;28;20561;-80
2022/08/21 10:56:41;;;;;;;4.25;1.02;;;23.60;61.90;;;;;;5062681;28;20020;-80
2022/08/21 10:59:27;;;;;;;3.78;0.88;;;23.50;61.20;;;;;;5075532;28;20158;-80
2022/08/21 11:02:00;;;;;;;6.28;1.00;;;23.50;61.70;;;;;;5074176;28;20028;-81
2022/08/21 11:04:59;;;;;;;3.80;0.82;;;23.50;61.00;;;;;;5057492;28;20483;-80
2022/08/21 11:07:43;;;;;;;5.72;1.00;;;23.40;60.40;;;;;;5055271;28;20083;-79
2022/08/21 11:10:17;;;;;;;3.78;1.20;;;23.30;60.40;;;;;;5055806;28;20028;-79
2022/08/21 11:12:53;;;;;;;4.25;1.00;;;23.30;60.20;;;;;;5077418;28;20048;-80
2022/08/21 11:15:25;;;;;;;4.22;1.08;;;23.30;61.00;;;;;;5079583;28;20020;-80
2022/08/21 11:18:00;;;;;;;7.05;1.00;;;23.20;61.30;;;;;;5079337;28;20104;-79
2022/08/21 11:20:37;;;;;;;3.83;1.00;;;23.10;61.80;;;;;;5060395;28;20060;-80
2022/08/21 11:23:11;;;;;;;6.43;1.10;;;23.00;62.20;;;;;;5061415;28;20021;-79
2022/08/21 11:26:09;;;;;;;2.30;1.10;;;23.00;62.20;;;;;;5079237;28;20120;-80
2022/08/21 11:28:42;;;;;;;2.40;0.75;;;23.00;62.80;;;;;;5041218;28;20055;-80
2022/08/21 11:31:36;;;;;;;4.32;1.05;;;23.20;62.20;;;;;;5079218;28;20013;-79
2022/08/21 11:34:31;;;;;;;4.55;0.85;;;23.30;61.70;;;;;;5079230;28;20080;-81
2022/08/21 11:37:26;;;;;;;5.65;1.17;;;23.30;61.10;;;;;;5069389;28;20041;-81
2022/08/21 11:39:58;;;;;;;5.55;1.05;;;23.30;61.80;;;;;;5058487;28;20047;-81
2022/08/21 11:42:42;;;;;;;2.58;1.15;;;23.30;62.20;;;;;;5057753;28;20053;-80
2022/08/21 11:45:26;;;;;;;3.90;1.25;;;23.00;63.90;;;;;;5059037;28;20037;-80
2022/08/21 11:48:17;;;;;;;3.00;1.30;;;22.90;65.50;;;;;;5063111;28;20139;-80
2022/08/21 11:50:45;;;;;;;2.95;0.90;;;22.90;66.10;;;;;;5078442;28;20039;-79
2022/08/21 11:53:34;;;;;;;5.53;1.08;;;22.80;66.50;;;;;;5041911;28;20067;-79
2022/08/21 11:56:11;;;;;;;5.70;1.58;;;22.70;67.20;;;;;;5058839;28;20032;-80
2022/08/21 11:58:45;;;;;;;5.03;1.40;;;22.60;68.40;;;;;;5058635;28;20033;-80
2022/08/21 12:01:19;;;;;;;4.78;1.25;;;22.50;68.90;;;;;;5058760;28;20033;-80
2022/08/21 12:03:58;;;;;;;5.38;1.60;;;22.20;70.30;;;;;;5058673;28;20032;-80
2022/08/21 12:06:35;;;;;;;8.60;1.50;;;22.20;70.60;;;;;;5066948;28;20083;-80
2022/08/21 12:09:05;;;;;;;5.25;1.08;;;22.00;70.70;;;;;;5058628;28;20488;-80
2022/08/21 12:11:31;;;;;;;5.65;1.48;;;22.10;71.10;;;;;;5070403;28;20016;-79
2022/08/21 12:13:56;;;;;;;4.28;1.27;;;21.90;71.00;;;;;;5078535;28;20059;-80
2022/08/21 12:16:30;;;;;;;7.82;1.85;;;22.00;71.70;;;;;;5064899;28;20025;-79
2022/08/21 12:19:27;;;;;;;9.55;3.10;;;21.80;72.00;;;;;;5058426;28;20032;-78
2022/08/21 12:22:04;;;;;;;6.20;1.58;;;21.80;72.90;;;;;;5058581;28;20369;-79
2022/08/21 12:24:41;;;;;;;6.10;1.20;;;21.60;73.10;;;;;;5057960;28;20124;-79
2022/08/21 12:27:28;;;;;;;3.60;1.40;;;21.50;73.40;;;;;;5040577;28;20061;-80
2022/08/21 12:30:06;;;;;;;4.32;1.42;;;21.40;74.00;;;;;;5058182;28;20017;-79
2022/08/21 12:32:41;;;;;;;3.53;1.27;;;21.30;73.70;;;;;;5066429;28;20020;-79
2022/08/21 12:35:16;;;;;;;3.47;1.25;;;21.30;74.00;;;;;;5078082;28;20032;-79
2022/08/21 12:37:49;;;;;;;2.45;1.63;;;21.50;74.40;;;;;;5078022;28;20502;-79
2022/08/21 12:40:24;;;;;;;7.15;1.83;;;21.70;74.70;;;;;;5069231;28;20025;-79
2022/08/21 12:42:53;;;;;;;7.70;1.98;;;22.00;73.70;;;;;;5039876;28;20054;-79
2022/08/21 12:45:33;;;;;;;3.03;1.58;;;22.00;72.90;;;;;;5058813;28;20075;-79
2022/08/21 12:48:17;;;;;;;6.07;1.45;;;21.80;73.90;;;;;;5057516;28;20045;-78
2022/08/21 12:51:11;;;;;;;4.47;1.67;;;21.80;74.50;;;;;;5057987;28;20025;-79
2022/08/21 12:53:49;;;;;;;4.63;1.20;;;21.60;74.90;;;;;;5066372;28;20110;-79
2022/08/21 12:56:21;;;;;;;2.10;1.25;;;21.90;74.70;;;;;;5058343;28;20032;-79
2022/08/21 12:58:54;;;;;;;4.05;1.17;;;22.00;74.70;;;;;;5039703;28;20495;-79
2022/08/21 13:01:27;;;;;;;1.83;0.90;;;22.30;74.00;;;;;;5057560;28;20025;-79
2022/08/21 13:03:57;;;;;;;4.43;1.30;;;22.10;73.30;;;;;;5057491;28;20033;-79